»·PEaware :: N413C KOAK-KMRY

N413C :: KOAK-KMRY

FLIGHT INFORMATION

Flight Status: Arrived
Operator: Privately registered:
United States
More flights under this callsign
Pilot: Alec D. (17934)
Aircraft: BEECH AIRCRAFT BONANZA
(BE35)
More flights by this aircraft type
Origin: KOAK Metro Oakland Intl
United States
Destination: KMRY Monterey Peninsula
United States
More flights between these airports :: More routes between these airports
Route: +NUEVO8 SHOEY SNS
File this flight plan on PilotEdge
Remarks:
Altitude:
(Current/Filed)
7,000ft
Speed:
(Current/Filed)
160kts
Departed: 29-Aug-20 08:46 AM
Arrived: 29-Aug-20 09:27 AM
Distance/Time
Traveled:
70nm/0:41
Distance/Time
To Go:
Arrived

Flight Plot

Page will automatically refresh every two minutes.

Flight plan parsing failed; only flown route is shown


Map Options




Map Legend


Flown Route
Filed Route
Departure Airport
Arrival Airport
Navaid (VOR, NDB)
Fix

Horizontal Profiles

Position Reports

Time Latitude Longitude Heading Altitude Ground
Speed
29-Aug-20 08:27 37.729146 -122.208389 30 9ft 0kts
29-Aug-20 08:27 37.729146 -122.208389 30 9ft 0kts
29-Aug-20 08:28 37.729146 -122.208389 30 9ft 0kts
29-Aug-20 08:29 37.729146 -122.208389 30 9ft 0kts
29-Aug-20 08:30 37.729148 -122.208388 30 9ft 0kts
29-Aug-20 08:31 37.729155 -122.208382 30 9ft 0kts
29-Aug-20 08:32 37.729163 -122.208376 30 9ft 0kts
29-Aug-20 08:33 37.729168 -122.208372 30 9ft 0kts
29-Aug-20 08:34 37.729174 -122.208368 30 9ft 0kts
29-Aug-20 08:35 37.729179 -122.208364 30 9ft 0kts
29-Aug-20 08:36 37.729184 -122.208360 30 9ft 0kts
29-Aug-20 08:37 37.729190 -122.208356 30 9ft 0kts
29-Aug-20 08:38 37.729195 -122.208352 30 9ft 0kts
29-Aug-20 08:39 37.729201 -122.208348 30 9ft 0kts
29-Aug-20 08:40 37.727125 -122.208786 149 9ft 11kts
29-Aug-20 08:41 37.725610 -122.204687 172 9ft 4kts
29-Aug-20 08:42 37.725502 -122.204689 183 9ft 0kts
29-Aug-20 08:43 37.725493 -122.204690 183 9ft 0kts
29-Aug-20 08:44 37.725485 -122.204691 183 9ft 0kts
29-Aug-20 08:45 37.727101 -122.211791 293 11ft 83kts
29-Aug-20 08:46 37.738032 -122.245427 294 1142ft 107kts
29-Aug-20 08:47 37.749833 -122.281286 290 1997ft 123kts
29-Aug-20 08:48 37.762983 -122.320716 289 2780ft 115kts
29-Aug-20 08:49 37.759030 -122.351896 195 3743ft 111kts
29-Aug-20 08:50 37.728727 -122.361987 201 4672ft 115kts
29-Aug-20 08:51 37.698378 -122.374630 200 5625ft 112kts
29-Aug-20 08:52 37.669242 -122.389071 200 6512ft 111kts
29-Aug-20 08:53 37.640845 -122.409134 216 7014ft 132kts
29-Aug-20 08:54 37.607742 -122.436457 215 7048ft 150kts
29-Aug-20 08:55 37.572070 -122.467922 216 7047ft 161kts
29-Aug-20 08:56 37.535060 -122.500348 217 7022ft 162kts
29-Aug-20 08:57 37.498117 -122.532787 214 7022ft 161kts
29-Aug-20 08:58 37.460832 -122.564460 204 7015ft 162kts
29-Aug-20 08:59 37.416238 -122.571198 184 7016ft 162kts
29-Aug-20 09:00 37.370956 -122.575812 184 7011ft 162kts
29-Aug-20 09:01 37.325830 -122.580725 185 7017ft 162kts
29-Aug-20 09:02 37.280792 -122.585656 185 7022ft 162kts
29-Aug-20 09:03 37.239009 -122.572055 144 7021ft 162kts
29-Aug-20 09:04 37.202078 -122.539352 144 7015ft 162kts
29-Aug-20 09:05 37.165105 -122.506900 144 7017ft 162kts
29-Aug-20 09:06 37.128181 -122.474561 144 7017ft 162kts
29-Aug-20 09:07 37.091213 -122.442222 144 7007ft 161kts
29-Aug-20 09:08 37.054633 -122.409576 144 7015ft 160kts
29-Aug-20 09:09 37.018110 -122.377042 144 6983ft 162kts
29-Aug-20 09:10 36.981335 -122.344332 144 6971ft 161kts
29-Aug-20 09:11 36.944826 -122.311898 144 6978ft 158kts
29-Aug-20 09:12 36.907832 -122.282984 166 6857ft 162kts
29-Aug-20 09:13 36.863317 -122.268443 164 6367ft 165kts
29-Aug-20 09:14 36.817884 -122.253200 163 5627ft 171kts
29-Aug-20 09:15 36.775350 -122.231767 128 4992ft 160kts
29-Aug-20 09:16 36.745257 -122.188482 132 4037ft 166kts
29-Aug-20 09:17 36.714088 -122.147156 134 3093ft 158kts
29-Aug-20 09:18 36.686766 -122.111248 133 2997ft 132kts
29-Aug-20 09:19 36.664926 -122.075589 114 2995ft 129kts
29-Aug-20 09:20 36.651460 -122.034116 110 3028ft 127kts
29-Aug-20 09:21 36.638605 -121.995432 116 2557ft 120kts
29-Aug-20 09:22 36.625919 -121.958669 112 1954ft 110kts
29-Aug-20 09:23 36.613845 -121.924139 115 1424ft 108kts
29-Aug-20 09:24 36.602467 -121.889699 111 849ft 104kts
29-Aug-20 09:25 36.591568 -121.858014 110 308ft 79kts
29-Aug-20 09:26 36.587441 -121.847520 198 260ft 0kts
29-Aug-20 09:27 36.587304 -121.848459 291 260ft 9kts
29-Aug-20 09:28 36.588532 -121.852016 293 260ft 11kts
29-Aug-20 09:29 36.588473 -121.853304 107 260ft 0kts
29-Aug-20 09:30 36.588473 -121.853304 107 260ft 0kts
29-Aug-20 09:31 36.588473 -121.853304 107 260ft 0kts
29-Aug-20 09:32 36.588473 -121.853304 107 260ft 0kts
29-Aug-20 09:33 36.588473 -121.853304 107 260ft 0kts
29-Aug-20 09:34 36.588473 -121.853304 107 260ft 0kts
29-Aug-20 09:35 36.588473 -121.853304 107 260ft 0kts
29-Aug-20 09:36 36.588473 -121.853304 107 260ft 0kts
29-Aug-20 09:37 36.588473 -121.853304 107 260ft 0kts

Navigation Log

Ident Type
Flight plan parsing failed, navigation log unavailable